Time;durP1;ratioP1;P1;durP2;ratioP2;P2;SDS_P1;SDS_P2;PMS_P1;PMS_P2;Temp;Humidity;BMP_temperature;BMP_pressure;BME280_temperature;BME280_humidity;BME280_pressure;Samples;Min_cycle;Max_cycle;Signal;HPM_P1;HPM_P2
2021/06/08 00:01:02;;;;;;;12.33;11.23;;;18.10;80.90;;;;;;5118412;28;20447;-82
2021/06/08 00:03:28;;;;;;;13.17;12.07;;;18.00;80.90;;;;;;5117958;28;20459;-82
2021/06/08 00:05:54;;;;;;;13.80;12.50;;;18.00;81.10;;;;;;5118465;28;20439;-82
2021/06/08 00:08:22;;;;;;;13.03;11.93;;;18.00;81.20;;;;;;5118047;28;20443;-80
2021/06/08 00:10:48;;;;;;;12.03;11.00;;;18.00;81.40;;;;;;5118416;28;20456;-82
2021/06/08 00:13:14;;;;;;;11.43;10.43;;;18.00;81.50;;;;;;5118100;28;20471;-81
2021/06/08 00:15:41;;;;;;;12.53;11.43;;;17.90;81.30;;;;;;5117377;28;20454;-81
2021/06/08 00:18:07;;;;;;;14.30;13.10;;;18.00;81.70;;;;;;5117624;28;20447;-81
2021/06/08 00:20:33;;;;;;;13.13;12.13;;;17.90;81.80;;;;;;5117489;28;20450;-80
2021/06/08 00:22:59;;;;;;;13.47;12.17;;;17.90;82.10;;;;;;5119971;28;20470;-82
2021/06/08 00:25:27;;;;;;;14.50;13.20;;;17.90;82.40;;;;;;5123757;28;20810;-82
2021/06/08 00:27:53;;;;;;;14.57;13.37;;;17.90;82.80;;;;;;5123377;28;20450;-81
2021/06/08 00:30:20;;;;;;;15.63;14.33;;;17.90;82.90;;;;;;5123483;28;20503;-82
2021/06/08 00:32:46;;;;;;;15.70;14.20;;;17.90;83.20;;;;;;5123232;28;20466;-82
2021/06/08 00:35:13;;;;;;;14.47;13.00;;;17.90;83.30;;;;;;5123406;28;20439;-81
2021/06/08 00:37:39;;;;;;;14.57;13.37;;;17.90;83.70;;;;;;5123227;28;20496;-82
2021/06/08 00:40:07;;;;;;;14.00;12.90;;;17.90;84.00;;;;;;5123457;28;20556;-81
2021/06/08 00:42:36;;;;;;;13.93;12.77;;;17.90;84.50;;;;;;5123292;28;20469;-81
2021/06/08 00:45:04;;;;;;;14.93;13.63;;;17.90;84.90;;;;;;5122830;28;20446;-81
2021/06/08 00:47:31;;;;;;;14.13;12.93;;;18.00;85.20;;;;;;5122771;28;20496;-81
2021/06/08 00:49:57;;;;;;;14.37;13.17;;;18.00;85.30;;;;;;5122379;28;20453;-81
2021/06/08 00:52:23;;;;;;;16.50;14.90;;;18.00;85.50;;;;;;5122677;28;20466;-81
2021/06/08 00:54:50;;;;;;;15.33;14.10;;;17.90;85.70;;;;;;5122217;28;20439;-82
2021/06/08 00:57:16;;;;;;;16.40;15.10;;;18.00;85.80;;;;;;5122513;28;20439;-81
2021/06/08 00:59:44;;;;;;;17.20;15.67;;;17.90;85.40;;;;;;5124659;28;20478;-81
2021/06/08 01:02:10;;;;;;;17.43;15.37;;;17.90;85.20;;;;;;5122740;28;20492;-81
2021/06/08 01:04:36;;;;;;;15.30;14.07;;;17.90;85.00;;;;;;5122054;28;20445;-81
2021/06/08 01:07:03;;;;;;;17.17;15.67;;;17.80;84.70;;;;;;5122376;28;20450;-81
2021/06/08 01:09:29;;;;;;;17.00;15.40;;;17.80;84.60;;;;;;5121899;28;20431;-81
2021/06/08 01:11:55;;;;;;;18.13;16.63;;;17.80;84.50;;;;;;5121158;28;20972;-81
2021/06/08 01:14:22;;;;;;;18.53;16.77;;;17.80;84.50;;;;;;5121911;28;20946;-81
2021/06/08 01:16:49;;;;;;;17.60;16.20;;;17.80;84.30;;;;;;5122193;28;20450;-81
2021/06/08 01:19:17;;;;;;;17.47;16.07;;;17.80;84.20;;;;;;5122096;28;20486;-82
2021/06/08 01:21:45;;;;;;;19.27;17.20;;;17.80;84.00;;;;;;5121632;28;20459;-81
2021/06/08 01:24:12;;;;;;;16.67;15.30;;;17.70;83.90;;;;;;5122461;28;20443;-82
2021/06/08 01:26:39;;;;;;;19.17;17.43;;;17.70;83.70;;;;;;5122501;28;20439;-82
2021/06/08 01:29:07;;;;;;;19.60;17.77;;;17.70;83.80;;;;;;5123005;28;20443;-81
2021/06/08 01:31:35;;;;;;;20.13;18.33;;;17.60;83.60;;;;;;5121967;28;20443;-81
2021/06/08 01:34:03;;;;;;;18.97;17.23;;;17.60;83.80;;;;;;5121626;28;20940;-81
2021/06/08 01:36:40;;;;;;;17.07;15.67;;;17.60;83.80;;;;;;5121245;28;20438;-81
2021/06/08 01:39:08;;;;;;;18.47;16.83;;;17.60;83.50;;;;;;5122494;28;20459;-81
2021/06/08 01:41:38;;;;;;;18.63;16.97;;;17.60;84.00;;;;;;5122029;28;20443;-81
2021/06/08 01:44:05;;;;;;;17.03;15.63;;;17.60;83.30;;;;;;5121747;28;20944;-81
2021/06/08 01:46:31;;;;;;;19.23;17.43;;;17.60;83.30;;;;;;5123736;28;20963;-81
2021/06/08 01:48:57;;;;;;;18.80;16.97;;;17.50;83.50;;;;;;5121767;28;20438;-81
2021/06/08 01:51:31;;;;;;;17.67;16.20;;;17.50;83.50;;;;;;5120733;28;20450;-81
2021/06/08 01:54:05;;;;;;;18.33;16.47;;;17.50;83.50;;;;;;5123406;28;20431;-81
2021/06/08 01:56:36;;;;;;;17.63;16.13;;;17.50;83.50;;;;;;5122833;28;20428;-81
2021/06/08 01:59:11;;;;;;;21.10;19.13;;;17.40;83.30;;;;;;5126240;28;20467;-81
2021/06/08 02:01:47;;;;;;;17.90;16.40;;;17.40;83.40;;;;;;5125962;28;20896;-81
2021/06/08 02:04:22;;;;;;;19.50;17.70;;;17.40;83.40;;;;;;5127052;28;20430;-81
2021/06/08 02:06:54;;;;;;;18.13;16.53;;;17.40;83.30;;;;;;5125809;28;20433;-81
2021/06/08 02:09:28;;;;;;;19.10;17.40;;;17.40;83.30;;;;;;5125626;28;20430;-82
2021/06/08 02:12:02;;;;;;;17.50;16.00;;;17.30;83.20;;;;;;5125733;28;20497;-81
2021/06/08 02:14:36;;;;;;;16.33;14.93;;;17.30;83.30;;;;;;5125923;28;20431;-81
2021/06/08 02:17:12;;;;;;;15.23;13.73;;;17.20;83.10;;;;;;5125438;28;20426;-81
2021/06/08 02:19:41;;;;;;;16.20;14.57;;;17.10;83.00;;;;;;5126009;28;20459;-81
2021/06/08 02:22:09;;;;;;;16.90;15.10;;;17.10;83.00;;;;;;5124859;28;20463;-80
2021/06/08 02:24:37;;;;;;;15.60;13.73;;;17.10;83.10;;;;;;5123951;28;20438;-81
2021/06/08 02:27:07;;;;;;;16.87;15.23;;;17.10;83.10;;;;;;5123667;28;20441;-82
2021/06/08 02:29:35;;;;;;;15.47;14.17;;;17.10;83.00;;;;;;5124392;28;20427;-82
2021/06/08 02:32:03;;;;;;;16.80;13.77;;;17.10;82.90;;;;;;5122613;28;20454;-82
2021/06/08 02:34:30;;;;;;;14.50;13.30;;;17.00;82.80;;;;;;5122807;28;20427;-81
2021/06/08 02:36:58;;;;;;;17.60;15.60;;;17.00;82.60;;;;;;5122445;28;20451;-82
2021/06/08 02:39:26;;;;;;;17.20;15.37;;;17.00;82.80;;;;;;5122812;28;20475;-82
2021/06/08 02:41:53;;;;;;;16.07;14.63;;;17.00;82.80;;;;;;5121571;28;20476;-81
2021/06/08 02:44:22;;;;;;;17.27;15.73;;;17.00;82.80;;;;;;5120746;28;20445;-81
2021/06/08 02:46:50;;;;;;;17.60;16.00;;;16.90;82.60;;;;;;5120802;28;20967;-82
2021/06/08 02:49:18;;;;;;;19.50;16.90;;;16.90;82.70;;;;;;5123484;28;20496;-82
2021/06/08 02:51:45;;;;;;;19.33;17.60;;;16.90;83.00;;;;;;5123659;28;20492;-81
2021/06/08 02:54:13;;;;;;;19.33;17.53;;;16.90;83.10;;;;;;5123953;28;20439;-82
2021/06/08 02:56:40;;;;;;;21.83;19.70;;;16.90;82.70;;;;;;5123762;28;20496;-81
2021/06/08 02:59:07;;;;;;;21.70;18.00;;;16.90;83.00;;;;;;5122413;28;20511;-78
2021/06/08 03:01:39;;;;;;;20.90;18.90;;;16.80;83.00;;;;;;5120750;28;20469;-81
2021/06/08 03:04:07;;;;;;;20.53;18.63;;;16.80;83.20;;;;;;5121543;28;20430;-82
2021/06/08 03:06:37;;;;;;;24.20;22.00;;;16.80;83.40;;;;;;5121367;28;20446;-80
2021/06/08 03:09:06;;;;;;;22.27;20.23;;;16.80;83.50;;;;;;5122188;28;20426;-80
2021/06/08 03:11:37;;;;;;;22.30;20.27;;;16.80;83.60;;;;;;5123831;28;20446;-82
2021/06/08 03:14:06;;;;;;;21.43;19.53;;;16.80;83.50;;;;;;5122775;28;20420;-80
2021/06/08 03:16:39;;;;;;;23.47;21.27;;;16.80;83.50;;;;;;5125966;28;20451;-80
2021/06/08 03:19:08;;;;;;;25.83;23.43;;;16.80;83.70;;;;;;5124480;28;20515;-81
2021/06/08 03:21:38;;;;;;;24.77;22.30;;;16.80;83.90;;;;;;5124277;28;20500;-80
2021/06/08 03:24:08;;;;;;;25.13;22.83;;;16.80;84.20;;;;;;5124515;28;20438;-81
2021/06/08 03:26:36;;;;;;;23.40;21.40;;;16.80;84.30;;;;;;5124493;28;20439;-81
2021/06/08 03:29:06;;;;;;;22.47;20.30;;;16.80;84.10;;;;;;5123349;28;20431;-80
2021/06/08 03:31:33;;;;;;;23.77;21.57;;;16.80;83.80;;;;;;5123531;28;20472;-81
2021/06/08 03:34:02;;;;;;;25.63;23.37;;;16.80;83.80;;;;;;5121757;28;20443;-80
2021/06/08 03:36:29;;;;;;;21.33;19.43;;;16.80;83.80;;;;;;5121309;28;20682;-80
2021/06/08 03:38:57;;;;;;;22.73;20.43;;;16.70;83.70;;;;;;5124025;28;20478;-81
2021/06/08 03:41:24;;;;;;;22.23;20.33;;;16.70;83.70;;;;;;5124817;28;20449;-80
2021/06/08 03:43:51;;;;;;;22.77;20.50;;;16.70;83.80;;;;;;5125629;28;20824;-80
2021/06/08 03:46:18;;;;;;;21.20;19.23;;;16.70;84.00;;;;;;5117474;28;20447;-80
2021/06/08 03:48:44;;;;;;;22.83;20.63;;;16.70;84.20;;;;;;5117470;28;20435;-81
2021/06/08 03:51:11;;;;;;;24.50;22.30;;;16.70;84.30;;;;;;5117435;28;20495;-80
2021/06/08 03:53:39;;;;;;;24.30;21.90;;;16.70;84.50;;;;;;5117512;28;20471;-80
2021/06/08 03:56:05;;;;;;;22.80;20.60;;;16.70;84.60;;;;;;5116999;28;20517;-80
2021/06/08 03:58:33;;;;;;;26.93;21.80;;;16.70;84.50;;;;;;5116218;28;20427;-80
2021/06/08 04:01:01;;;;;;;22.80;20.50;;;16.70;84.50;;;;;;5116055;28;20447;-80
2021/06/08 04:03:28;;;;;;;25.63;23.20;;;16.70;84.70;;;;;;5116349;28;20991;-79
2021/06/08 04:05:54;;;;;;;22.67;20.47;;;16.80;85.10;;;;;;5116816;28;20464;-79
2021/06/08 04:08:22;;;;;;;23.30;21.13;;;16.70;85.20;;;;;;5116590;28;20443;-81
2021/06/08 04:10:50;;;;;;;23.07;20.97;;;16.80;85.50;;;;;;5116719;28;20442;-80
2021/06/08 04:13:17;;;;;;;22.47;20.33;;;16.80;85.50;;;;;;5116370;28;21020;-81
2021/06/08 04:15:45;;;;;;;23.23;21.10;;;16.80;85.70;;;;;;5116085;28;20462;-80
2021/06/08 04:18:11;;;;;;;23.00;20.87;;;16.80;85.80;;;;;;5115469;28;20940;-80
2021/06/08 04:20:38;;;;;;;23.10;21.00;;;16.90;86.40;;;;;;5115975;28;20483;-80
2021/06/08 04:23:04;;;;;;;24.37;21.97;;;17.00;86.60;;;;;;5116406;28;20830;-80
2021/06/08 04:25:32;;;;;;;21.83;19.93;;;17.00;86.60;;;;;;5115461;28;20538;-81
2021/06/08 04:27:58;;;;;;;23.57;21.37;;;17.00;86.50;;;;;;5115981;28;20446;-81
2021/06/08 04:30:26;;;;;;;23.70;21.50;;;17.00;86.60;;;;;;5117177;28;20439;-81
2021/06/08 04:32:52;;;;;;;21.87;19.83;;;17.00;86.80;;;;;;5116576;28;20463;-79
2021/06/08 04:35:20;;;;;;;22.00;20.17;;;17.10;86.90;;;;;;5115629;28;20477;-79
2021/06/08 04:37:47;;;;;;;20.50;18.60;;;17.10;86.90;;;;;;5116056;28;20447;-80
2021/06/08 04:40:16;;;;;;;21.63;19.43;;;17.10;87.00;;;;;;5116060;28;20565;-81
2021/06/08 04:42:45;;;;;;;21.30;19.43;;;17.10;87.00;;;;;;5115841;28;20462;-82
2021/06/08 04:45:12;;;;;;;23.57;21.17;;;17.20;87.10;;;;;;5119710;28;20449;-82
2021/06/08 04:47:38;;;;;;;21.90;20.00;;;17.20;87.20;;;;;;5119272;28;20892;-80
2021/06/08 04:50:07;;;;;;;22.47;20.07;;;17.30;87.20;;;;;;5119358;28;20438;-80
2021/06/08 04:52:33;;;;;;;22.17;19.87;;;17.30;87.30;;;;;;5118812;28;20600;-82
2021/06/08 04:55:00;;;;;;;22.13;20.13;;;17.40;87.30;;;;;;5119196;28;20443;-80
2021/06/08 04:57:26;;;;;;;22.03;20.13;;;17.40;87.20;;;;;;5118591;28;20944;-80
2021/06/08 05:00:00;;;;;;;21.27;19.13;;;17.40;87.10;;;;;;5118443;28;20479;-80
2021/06/08 05:02:34;;;;;;;20.50;18.50;;;17.40;86.90;;;;;;5118362;28;20469;-80
2021/06/08 05:05:04;;;;;;;20.33;18.50;;;17.40;86.80;;;;;;5118375;28;20423;-82
2021/06/08 05:07:32;;;;;;;22.60;20.60;;;17.50;87.20;;;;;;5118163;28;20439;-82
2021/06/08 05:10:01;;;;;;;21.37;19.57;;;17.50;87.60;;;;;;5117485;28;20443;-82
2021/06/08 05:12:28;;;;;;;19.40;17.70;;;17.50;87.70;;;;;;5121120;28;20471;-82
2021/06/08 05:14:57;;;;;;;21.70;19.90;;;17.60;87.40;;;;;;5120910;28;20492;-81
2021/06/08 05:17:24;;;;;;;21.10;19.00;;;17.60;87.10;;;;;;5120494;28;20447;-80
2021/06/08 05:19:53;;;;;;;20.43;18.63;;;17.60;87.00;;;;;;5120174;28;20474;-82
2021/06/08 05:22:21;;;;;;;22.00;19.93;;;17.70;86.90;;;;;;5120213;28;20466;-82
2021/06/08 05:24:49;;;;;;;21.73;19.83;;;17.70;87.10;;;;;;5120131;28;20442;-82
2021/06/08 05:27:17;;;;;;;22.00;19.80;;;17.70;87.10;;;;;;5119855;28;20807;-81
2021/06/08 05:29:44;;;;;;;25.07;20.73;;;17.80;87.00;;;;;;5119509;28;20439;-81
2021/06/08 05:32:14;;;;;;;20.43;18.37;;;17.80;87.20;;;;;;5120043;28;20459;-82
2021/06/08 05:34:42;;;;;;;20.20;18.43;;;17.90;87.20;;;;;;5120233;28;20448;-81
2021/06/08 05:37:10;;;;;;;19.60;17.90;;;18.00;87.00;;;;;;5120059;28;20454;-81
2021/06/08 05:39:37;;;;;;;19.33;17.53;;;18.00;86.60;;;;;;5119978;28;20474;-83
2021/06/08 05:42:06;;;;;;;17.80;16.10;;;18.00;86.10;;;;;;5133041;27;20473;-82
2021/06/08 05:44:34;;;;;;;19.17;17.37;;;18.10;86.10;;;;;;5132735;28;20419;-82
2021/06/08 05:47:01;;;;;;;19.17;17.37;;;18.10;86.20;;;;;;5120503;28;20453;-81
2021/06/08 05:49:29;;;;;;;19.00;17.17;;;18.20;86.10;;;;;;5120395;28;20446;-81
2021/06/08 05:51:58;;;;;;;18.50;16.70;;;18.20;85.90;;;;;;5119368;28;20474;-82
2021/06/08 05:54:26;;;;;;;17.17;15.60;;;18.30;86.00;;;;;;5119464;28;20906;-82
2021/06/08 05:56:53;;;;;;;18.93;17.23;;;18.40;85.60;;;;;;5118970;28;20450;-81
2021/06/08 05:59:19;;;;;;;18.63;16.77;;;18.40;85.40;;;;;;5118592;28;21059;-80
2021/06/08 06:01:45;;;;;;;19.10;17.33;;;18.50;85.50;;;;;;5118944;28;20466;-80
2021/06/08 06:04:13;;;;;;;23.73;17.60;;;18.50;85.30;;;;;;5119396;28;20446;-82
2021/06/08 06:06:41;;;;;;;18.87;17.00;;;18.60;85.20;;;;;;5122931;28;20937;-83
2021/06/08 06:09:07;;;;;;;17.80;16.03;;;18.70;85.50;;;;;;5121836;28;20473;-83
2021/06/08 06:11:36;;;;;;;17.50;15.90;;;18.70;85.20;;;;;;5122561;28;20447;-83
2021/06/08 06:14:04;;;;;;;17.10;15.60;;;18.80;85.20;;;;;;5121980;28;20435;-83
2021/06/08 06:16:34;;;;;;;15.80;14.30;;;18.90;84.90;;;;;;5121365;28;21030;-83
2021/06/08 06:19:01;;;;;;;18.80;16.87;;;19.00;84.90;;;;;;5121436;28;20463;-83
2021/06/08 06:21:28;;;;;;;17.07;15.67;;;19.10;84.20;;;;;;5120559;28;20451;-83
2021/06/08 06:23:56;;;;;;;18.60;16.80;;;19.10;84.10;;;;;;5120537;28;20442;-83
2021/06/08 06:26:25;;;;;;;18.37;16.50;;;19.20;83.90;;;;;;5120169;28;20457;-83
2021/06/08 06:28:51;;;;;;;17.30;15.77;;;19.30;83.90;;;;;;5120182;28;20435;-81
2021/06/08 06:31:18;;;;;;;17.70;15.90;;;19.30;83.20;;;;;;5120504;28;20428;-82
2021/06/08 06:33:50;;;;;;;17.93;16.23;;;19.30;82.80;;;;;;5119870;28;20569;-82
2021/06/08 06:36:17;;;;;;;18.00;16.10;;;19.40;83.00;;;;;;5120013;28;20430;-82
2021/06/08 06:38:47;;;;;;;19.93;18.00;;;19.40;82.70;;;;;;5119855;28;20472;-82
2021/06/08 06:41:17;;;;;;;18.33;16.53;;;19.50;82.10;;;;;;5119554;28;20439;-80
2021/06/08 06:43:49;;;;;;;17.13;15.60;;;19.60;81.90;;;;;;5119580;28;20899;-81
2021/06/08 06:46:16;;;;;;;17.63;16.03;;;19.70;81.70;;;;;;5119174;28;20427;-81
2021/06/08 06:48:44;;;;;;;17.17;15.57;;;19.70;81.30;;;;;;5119213;28;20455;-81
2021/06/08 06:51:11;;;;;;;17.90;16.23;;;19.80;80.80;;;;;;5118560;28;20439;-81
2021/06/08 06:53:37;;;;;;;16.33;14.73;;;19.90;80.90;;;;;;5118414;28;20481;-81
2021/06/08 06:56:04;;;;;;;16.73;15.07;;;19.90;81.00;;;;;;5118231;28;20447;-83
2021/06/08 06:58:32;;;;;;;18.43;16.63;;;19.90;80.90;;;;;;5118739;28;20462;-82
2021/06/08 07:00:59;;;;;;;16.77;15.10;;;19.90;80.90;;;;;;5118150;28;20526;-81
2021/06/08 07:03:30;;;;;;;16.50;14.90;;;19.90;80.40;;;;;;5118420;28;20469;-82
2021/06/08 07:05:57;;;;;;;16.23;14.70;;;20.00;80.40;;;;;;5118092;28;20423;-82
2021/06/08 07:08:25;;;;;;;17.53;16.07;;;20.10;80.50;;;;;;5117960;28;20450;-82
2021/06/08 07:10:53;;;;;;;18.90;17.07;;;20.20;80.80;;;;;;5118243;28;20480;-83
2021/06/08 07:13:19;;;;;;;15.83;14.33;;;20.30;81.30;;;;;;5117750;28;20474;-82
2021/06/08 07:15:48;;;;;;;17.63;16.13;;;20.50;80.20;;;;;;5117483;28;20462;-81
2021/06/08 07:18:15;;;;;;;18.20;16.60;;;20.60;79.00;;;;;;5117807;28;20453;-79
2021/06/08 07:20:42;;;;;;;19.10;17.30;;;20.70;78.60;;;;;;5118335;28;20867;-82
2021/06/08 07:23:09;;;;;;;14.33;13.07;;;20.80;79.00;;;;;;5117184;28;20827;-81
2021/06/08 07:25:38;;;;;;;16.17;14.63;;;20.90;79.50;;;;;;5116998;28;20459;-79
2021/06/08 07:28:06;;;;;;;16.37;14.97;;;21.10;79.30;;;;;;5117152;28;20463;-80
2021/06/08 07:30:33;;;;;;;17.03;13.10;;;21.40;78.60;;;;;;5118857;28;20851;-82
2021/06/08 07:33:13;;;;;;;11.57;10.47;;;21.60;77.30;;;;;;5115506;28;20999;-81
2021/06/08 07:35:50;;;;;;;12.07;10.97;;;21.90;76.00;;;;;;5116708;28;20492;-83
2021/06/08 07:38:20;;;;;;;15.67;14.17;;;22.30;75.00;;;;;;5116012;28;20916;-80
2021/06/08 07:40:55;;;;;;;15.60;14.17;;;22.60;74.70;;;;;;5116171;28;21020;-81
2021/06/08 07:43:26;;;;;;;16.97;15.57;;;22.90;71.80;;;;;;5115992;28;20481;-82
2021/06/08 07:45:52;;;;;;;10.90;9.77;;;23.20;71.30;;;;;;5116016;28;20456;-82
2021/06/08 07:48:25;;;;;;;11.03;9.20;;;23.40;70.20;;;;;;5116299;28;20437;-82
2021/06/08 07:50:54;;;;;;;9.87;8.87;;;23.60;68.90;;;;;;5115698;28;20431;-82
2021/06/08 07:53:22;;;;;;;9.90;9.10;;;23.90;67.90;;;;;;5115286;28;20454;-82
2021/06/08 07:55:49;;;;;;;14.67;13.37;;;24.20;67.00;;;;;;5115802;28;20439;-80
2021/06/08 07:58:23;;;;;;;12.93;11.77;;;24.50;65.30;;;;;;5114900;28;20937;-80
2021/06/08 08:00:52;;;;;;;9.73;8.90;;;24.80;63.90;;;;;;5117010;28;20515;-81
2021/06/08 08:03:27;;;;;;;9.30;8.60;;;24.90;63.50;;;;;;5114159;28;20459;-77
2021/06/08 08:05:58;;;;;;;11.30;10.17;;;25.20;63.60;;;;;;5115823;28;20435;-77
2021/06/08 08:08:25;;;;;;;8.00;7.20;;;25.50;63.00;;;;;;5115042;28;20423;-77
2021/06/08 08:10:52;;;;;;;7.90;7.20;;;25.70;61.40;;;;;;5115694;28;20442;-78
2021/06/08 08:13:22;;;;;;;9.33;7.70;;;26.00;59.80;;;;;;5116051;28;20978;-77
2021/06/08 08:15:50;;;;;;;10.70;9.67;;;26.30;59.00;;;;;;5115066;28;20874;-77
2021/06/08 08:18:19;;;;;;;11.73;10.67;;;26.50;58.70;;;;;;5116305;28;20443;-76
2021/06/08 08:20:49;;;;;;;12.70;11.50;;;26.80;58.30;;;;;;5115206;28;20470;-76
2021/06/08 08:23:15;;;;;;;10.17;9.13;;;27.00;55.50;;;;;;5115663;28;20470;-76
2021/06/08 08:25:42;;;;;;;9.63;8.73;;;27.00;55.50;;;;;;5116435;28;20423;-78
2021/06/08 08:28:10;;;;;;;6.77;6.23;;;27.10;54.90;;;;;;5117716;28;20432;-77
2021/06/08 08:30:37;;;;;;;9.10;7.30;;;27.20;54.50;;;;;;5117611;28;20439;-78
2021/06/08 08:33:04;;;;;;;7.70;7.10;;;27.30;54.50;;;;;;5116127;28;20990;-77
2021/06/08 08:35:32;;;;;;;7.97;7.40;;;27.50;54.50;;;;;;5116931;28;20431;-77
2021/06/08 08:37:59;;;;;;;10.53;6.77;;;27.80;54.80;;;;;;5115461;28;20427;-76
2021/06/08 08:40:26;;;;;;;7.17;6.37;;;28.00;53.90;;;;;;5115639;28;20834;-76
2021/06/08 08:42:52;;;;;;;13.07;11.90;;;28.10;53.70;;;;;;5115174;28;20474;-76
2021/06/08 08:45:20;;;;;;;10.00;8.90;;;28.30;52.50;;;;;;5119157;28;20456;-78
2021/06/08 08:47:46;;;;;;;8.30;7.10;;;28.50;49.50;;;;;;5120009;28;20453;-76
2021/06/08 08:50:15;;;;;;;8.93;8.13;;;28.60;51.00;;;;;;5121591;28;20490;-76
2021/06/08 08:52:45;;;;;;;9.57;8.60;;;28.80;51.30;;;;;;5121904;28;20466;-76
2021/06/08 08:55:13;;;;;;;11.10;10.20;;;29.00;50.80;;;;;;5119955;28;20427;-76
2021/06/08 08:57:40;;;;;;;14.60;13.40;;;29.20;50.60;;;;;;5122521;28;20849;-76
2021/06/08 09:00:08;;;;;;;5.60;5.13;;;29.20;46.40;;;;;;5118024;28;20489;-77
2021/06/08 09:02:36;;;;;;;7.00;6.30;;;29.20;47.70;;;;;;5120544;28;20470;-78
2021/06/08 09:05:03;;;;;;;12.33;11.30;;;29.40;48.70;;;;;;5120323;28;20454;-77
2021/06/08 09:07:29;;;;;;;10.60;9.77;;;29.60;47.00;;;;;;5119356;28;20904;-77
2021/06/08 09:09:57;;;;;;;12.10;11.13;;;29.60;46.60;;;;;;5118275;28;20423;-79
2021/06/08 09:12:23;;;;;;;10.80;9.90;;;29.80;44.50;;;;;;5119053;28;20512;-79
2021/06/08 09:14:50;;;;;;;13.83;12.50;;;29.80;43.70;;;;;;5119511;28;20443;-78
2021/06/08 09:17:19;;;;;;;11.83;10.93;;;29.90;43.20;;;;;;5119128;28;20423;-80
2021/06/08 09:19:46;;;;;;;10.73;9.80;;;29.80;43.30;;;;;;5118977;28;20481;-80
2021/06/08 09:22:13;;;;;;;11.50;10.47;;;29.50;43.40;;;;;;5118707;28;20462;-80
2021/06/08 09:24:43;;;;;;;11.93;10.87;;;29.20;44.70;;;;;;5118496;28;20453;-80
2021/06/08 09:27:12;;;;;;;9.23;8.53;;;28.80;45.80;;;;;;5118618;28;20446;-79
2021/06/08 09:29:40;;;;;;;13.57;12.37;;;28.40;46.30;;;;;;5118724;28;20439;-80
2021/06/08 09:32:15;;;;;;;15.30;14.10;;;28.30;47.20;;;;;;5118499;28;20505;-76
2021/06/08 09:34:44;;;;;;;14.47;13.13;;;28.30;45.80;;;;;;5117048;28;20951;-77
2021/06/08 09:37:10;;;;;;;11.77;10.83;;;28.30;44.90;;;;;;5117225;28;20455;-77
2021/06/08 09:39:46;;;;;;;9.27;8.57;;;28.50;45.50;;;;;;5117693;28;20463;-79
2021/06/08 09:42:26;;;;;;;7.60;6.90;;;28.80;46.50;;;;;;5117699;28;20473;-77
2021/06/08 09:44:52;;;;;;;7.93;7.33;;;29.00;47.00;;;;;;5117094;28;20427;-77
2021/06/08 09:47:27;;;;;;;13.37;12.27;;;29.30;47.60;;;;;;5117090;28;20450;-78
2021/06/08 09:49:53;;;;;;;10.60;9.60;;;29.70;46.90;;;;;;5116809;28;20836;-77
2021/06/08 09:52:20;;;;;;;9.47;7.40;;;30.10;44.00;;;;;;5116763;28;20470;-78
2021/06/08 09:54:50;;;;;;;6.87;6.37;;;30.40;44.00;;;;;;5116820;28;20897;-77
2021/06/08 09:57:23;;;;;;;7.70;7.10;;;30.90;43.50;;;;;;5116050;28;20458;-77
2021/06/08 09:59:55;;;;;;;8.47;7.60;;;31.40;43.20;;;;;;5116624;28;20459;-77
2021/06/08 10:02:44;;;;;;;8.67;7.87;;;31.90;42.00;;;;;;5116613;28;20545;-77
2021/06/08 10:05:24;;;;;;;12.73;11.60;;;32.40;39.70;;;;;;5116595;28;20433;-77
2021/06/08 10:07:52;;;;;;;7.83;6.83;;;32.50;38.20;;;;;;5116636;28;20426;-76
2021/06/08 10:10:20;;;;;;;8.10;7.40;;;32.50;37.00;;;;;;5116569;28;20799;-77
2021/06/08 10:13:01;;;;;;;8.70;8.00;;;32.50;37.90;;;;;;5117215;28;20455;-79
2021/06/08 10:15:32;;;;;;;8.87;8.07;;;32.40;39.10;;;;;;5117223;28;20808;-78
2021/06/08 10:18:07;;;;;;;7.00;6.40;;;32.40;39.40;;;;;;5117692;28;20427;-78
2021/06/08 10:20:35;;;;;;;6.70;6.20;;;32.40;40.00;;;;;;5117002;28;20472;-78
2021/06/08 10:23:19;;;;;;;11.10;10.23;;;32.50;40.00;;;;;;5117244;28;20462;-79
2021/06/08 10:25:46;;;;;;;13.27;12.20;;;32.60;36.70;;;;;;5117258;28;20431;-78
2021/06/08 10:28:12;;;;;;;8.53;7.93;;;32.50;35.50;;;;;;5117202;28;20450;-79
2021/06/08 10:30:42;;;;;;;8.20;7.50;;;32.40;36.10;;;;;;5117570;28;20434;-79
2021/06/08 10:33:08;;;;;;;8.63;6.27;;;32.80;38.10;;;;;;5117166;28;20477;-79
2021/06/08 10:35:36;;;;;;;7.30;6.67;;;33.30;38.00;;;;;;5117094;28;20522;-79
2021/06/08 10:38:02;;;;;;;7.60;7.10;;;33.90;36.90;;;;;;5117016;28;20794;-79
2021/06/08 10:40:29;;;;;;;7.20;6.70;;;34.20;35.40;;;;;;5116689;28;20484;-79
2021/06/08 10:42:56;;;;;;;8.17;7.47;;;34.50;35.00;;;;;;5116779;28;20518;-79
2021/06/08 10:45:23;;;;;;;8.60;7.90;;;34.90;34.60;;;;;;5117248;28;20442;-80
2021/06/08 10:47:55;;;;;;;9.47;8.67;;;35.40;31.00;;;;;;5116663;28;20445;-80
2021/06/08 10:50:26;;;;;;;6.10;5.60;;;36.10;31.70;;;;;;5116426;28;20427;-79
2021/06/08 10:52:56;;;;;;;6.83;6.30;;;36.90;31.80;;;;;;5116560;28;20495;-77
2021/06/08 10:55:25;;;;;;;7.60;7.00;;;37.60;30.80;;;;;;5115854;28;20430;-78
2021/06/08 10:57:52;;;;;;;8.57;7.97;;;38.10;29.80;;;;;;5116253;28;20700;-79
2021/06/08 11:00:39;;;;;;;11.90;10.90;;;38.60;28.30;;;;;;5118297;28;20244;-82
2021/06/08 11:03:08;;;;;;;7.72;7.13;;;38.90;25.80;;;;;;5116587;28;20701;-78
2021/06/08 11:05:50;;;;;;;9.27;8.57;;;39.20;25.80;;;;;;5115551;28;20614;-79
2021/06/08 11:08:18;;;;;;;9.70;9.00;;;39.30;25.40;;;;;;5115268;28;20200;-80
2021/06/08 11:10:53;;;;;;;8.68;8.07;;;39.20;25.60;;;;;;5117026;28;20181;-79
2021/06/08 11:13:42;;;;;;;13.70;12.70;;;39.30;26.50;;;;;;5116033;28;20235;-77
2021/06/08 11:16:27;;;;;;;13.80;12.80;;;39.70;25.60;;;;;;5115883;28;20219;-79
2021/06/08 11:18:55;;;;;;;14.60;13.20;;;39.80;24.20;;;;;;5115390;28;20208;-79
2021/06/08 11:21:29;;;;;;;13.07;12.07;;;40.00;24.20;;;;;;5115896;28;20205;-78
2021/06/08 11:23:56;;;;;;;9.27;8.57;;;40.00;24.10;;;;;;5115691;28;20187;-78
2021/06/08 11:26:50;;;;;;;13.05;12.05;;;40.10;24.80;;;;;;5115258;28;20207;-78
2021/06/08 11:29:45;;;;;;;10.35;9.55;;;40.00;24.70;;;;;;5114971;28;20666;-79
2021/06/08 11:32:45;;;;;;;10.57;9.88;;;39.10;25.80;;;;;;5056576;28;20260;-78
2021/06/08 11:35:17;;;;;;;11.70;10.80;;;38.10;27.30;;;;;;5106947;28;20257;-79
2021/06/08 11:37:48;;;;;;;12.50;11.23;;;37.20;28.40;;;;;;5114907;28;20189;-77
2021/06/08 11:40:54;;;;;;;11.00;10.20;;;36.40;29.50;;;;;;5114640;28;20223;-77
2021/06/08 11:43:44;;;;;;;12.80;11.80;;;35.70;30.40;;;;;;5114720;28;20565;-78
2021/06/08 11:46:12;;;;;;;9.67;8.77;;;35.40;31.40;;;;;;5114808;28;20435;-76
2021/06/08 11:48:41;;;;;;;15.47;14.43;;;35.80;32.60;;;;;;5114591;28;20446;-77
2021/06/08 11:51:34;;;;;;;14.30;13.00;;;36.60;31.30;;;;;;5114575;28;20888;-76
2021/06/08 11:54:03;;;;;;;12.70;11.80;;;37.70;28.60;;;;;;5114290;28;20587;-78
2021/06/08 11:56:53;;;;;;;11.83;10.93;;;38.60;28.60;;;;;;5114883;28;20277;-77
2021/06/08 11:59:22;;;;;;;13.18;10.52;;;39.50;26.90;;;;;;5114449;28;20765;-78
2021/06/08 12:01:52;;;;;;;11.32;10.50;;;40.30;26.60;;;;;;5115168;28;20224;-80
2021/06/08 12:04:18;;;;;;;11.48;10.57;;;41.10;25.70;;;;;;5114751;28;20185;-77
2021/06/08 12:07:04;;;;;;;10.77;10.07;;;41.70;24.80;;;;;;5114298;28;20185;-77
2021/06/08 12:09:35;;;;;;;19.77;18.38;;;42.20;24.30;;;;;;5114601;28;20200;-79
2021/06/08 12:12:09;;;;;;;15.30;14.00;;;42.70;21.60;;;;;;5114867;28;20228;-76
2021/06/08 12:14:36;;;;;;;11.00;10.30;;;43.00;21.70;;;;;;5115209;28;20202;-78
2021/06/08 12:17:03;;;;;;;11.10;10.35;;;43.40;22.10;;;;;;5114054;28;20626;-76
2021/06/08 12:19:32;;;;;;;12.73;11.73;;;43.90;22.70;;;;;;5113973;28;20234;-78
2021/06/08 12:21:59;;;;;;;13.00;12.02;;;44.50;22.50;;;;;;5114597;28;20585;-78
2021/06/08 12:24:28;;;;;;;14.18;13.18;;;44.30;21.50;;;;;;5114652;28;20204;-79
2021/06/08 12:26:58;;;;;;;14.70;13.70;;;43.70;21.50;;;;;;5114563;28;20245;-79
2021/06/08 12:29:25;;;;;;;12.55;11.65;;;43.10;22.40;;;;;;5113983;28;20192;-80
2021/06/08 12:31:56;;;;;;;14.52;13.63;;;42.90;23.20;;;;;;5114462;28;20231;-79
2021/06/08 12:34:25;;;;;;;14.55;13.45;;;42.40;23.30;;;;;;5114687;28;20188;-80
2021/06/08 12:36:52;;;;;;;15.63;14.25;;;41.60;23.90;;;;;;5114842;28;20192;-80
2021/06/08 12:39:22;;;;;;;16.75;15.68;;;40.80;24.80;;;;;;5114587;28;20203;-79
2021/06/08 12:41:50;;;;;;;17.40;16.10;;;40.50;25.40;;;;;;5114040;28;20714;-80